Terminal Aerodrome Forecast
Issued by NWS Sterling, VA

Home | Current Version | Previous Version | Text Only | Print | Product List | Glossary On
Versions: 1 2 3 4 5 6 7 8 9 10 11 12 13 14 15 16 17 18 19 20 21 22 23 24 25 26 27
000
FTUS41 KLWX 020538
TAFDCA
TAF
KDCA 020538Z 0206/0306 19005KT P6SM SKC
     FM021300 19009KT P6SM FEW250
     FM021600 19014KT P6SM FEW250
     FM022300 20013KT P6SM BKN110=

USA.gov is the U.S. government's official web portal to all federal, state and local government web resources and services.